Red Iron Lake, South Dakota
Current Conditions -  °F | °C
As of 5:55 PM on Friday 21 Nov 2014 (Local Time) from KGWR Reporting Station
Few Clouds Few Clouds  
Wind Chill: 21°   Ceiling: Unl
Heat Index: 32°   Visibility: 10mi
Dew Point: 28°   Wind: 16mph
Humidity: 87%   Direction: 210°SSW
Pressure: 29.75"   Gusts: NA
Location:  45.6965°N, 97.3492°W
Report Text: KGWR 212355Z AUTO 21014KT 10SM FEW120 00/M02 A2975 RMK A01 P000
Loading
Personal Weather Stations






























Interactive Weather Map New forecast layout! Learn more

10-Day Weather Forecast

Advertisements
Track Severe Weather on mobile